sensor_id;sensor_type;location;lat;lon;timestamp;pressure;altitude;pressure_sealevel;temperature;humidity
19672;BME280;9983;51.114;13.788;2023-04-28T00:02:58;99662.13;;;6.12;73.35
19672;BME280;9983;51.114;13.788;2023-04-28T00:07:59;99648.41;;;6.26;71.22
19672;BME280;9983;51.114;13.788;2023-04-28T00:12:59;99651.34;;;6.03;73.54
19672;BME280;9983;51.114;13.788;2023-04-28T00:17:59;99647.56;;;5.87;75.45
19672;BME280;9983;51.114;13.788;2023-04-28T00:23:00;99642.53;;;5.74;75.27
19672;BME280;9983;51.114;13.788;2023-04-28T00:28:00;99643.94;;;5.59;75.73
19672;BME280;9983;51.114;13.788;2023-04-28T00:33:00;99634.44;;;5.85;75.63
19672;BME280;9983;51.114;13.788;2023-04-28T00:38:01;99620.09;;;6.25;74.77
19672;BME280;9983;51.114;13.788;2023-04-28T00:43:01;99624.59;;;6.15;74.83
19672;BME280;9983;51.114;13.788;2023-04-28T00:48:02;99614.13;;;5.84;75.82
19672;BME280;9983;51.114;13.788;2023-04-28T00:53:02;99602.50;;;5.85;73.99
19672;BME280;9983;51.114;13.788;2023-04-28T00:58:04;99583.97;;;6.13;72.45
19672;BME280;9983;51.114;13.788;2023-04-28T01:03:04;99583.09;;;6.22;73.21
19672;BME280;9983;51.114;13.788;2023-04-28T01:08:04;99571.88;;;6.28;73.61
19672;BME280;9983;51.114;13.788;2023-04-28T01:13:05;99567.16;;;6.12;74.97
19672;BME280;9983;51.114;13.788;2023-04-28T01:18:05;99570.53;;;6.14;74.95
19672;BME280;9983;51.114;13.788;2023-04-28T01:23:11;99567.34;;;6.38;73.12
19672;BME280;9983;51.114;13.788;2023-04-28T01:28:11;99566.53;;;6.28;74.05
19672;BME280;9983;51.114;13.788;2023-04-28T01:33:12;99561.56;;;6.05;74.38
19672;BME280;9983;51.114;13.788;2023-04-28T01:38:12;99559.06;;;5.94;76.09
19672;BME280;9983;51.114;13.788;2023-04-28T01:43:12;99551.94;;;5.95;76.28
19672;BME280;9983;51.114;13.788;2023-04-28T01:48:12;99536.66;;;5.87;75.21
19672;BME280;9983;51.114;13.788;2023-04-28T01:53:13;99528.28;;;6.01;74.61
19672;BME280;9983;51.114;13.788;2023-04-28T01:58:13;99518.50;;;6.20;74.21
19672;BME280;9983;51.114;13.788;2023-04-28T02:03:13;99528.41;;;6.37;71.03
19672;BME280;9983;51.114;13.788;2023-04-28T02:08:14;99520.81;;;6.42;72.74
19672;BME280;9983;51.114;13.788;2023-04-28T02:13:14;99529.97;;;5.64;76.63
19672;BME280;9983;51.114;13.788;2023-04-28T02:18:15;99528.88;;;5.57;78.79
19672;BME280;9983;51.114;13.788;2023-04-28T02:23:16;99517.91;;;5.98;75.10
19672;BME280;9983;51.114;13.788;2023-04-28T02:28:16;99514.53;;;5.96;75.30
19672;BME280;9983;51.114;13.788;2023-04-28T02:33:16;99510.78;;;5.70;76.34
19672;BME280;9983;51.114;13.788;2023-04-28T02:38:16;99513.06;;;5.46;77.88
19672;BME280;9983;51.114;13.788;2023-04-28T02:43:17;99499.75;;;5.65;77.07
19672;BME280;9983;51.114;13.788;2023-04-28T02:48:17;99505.91;;;5.56;77.44
19672;BME280;9983;51.114;13.788;2023-04-28T02:53:18;99484.25;;;5.51;78.87
19672;BME280;9983;51.114;13.788;2023-04-28T02:58:19;99488.03;;;5.19;78.76
19672;BME280;9983;51.114;13.788;2023-04-28T03:03:19;99476.13;;;5.43;80.34
19672;BME280;9983;51.114;13.788;2023-04-28T03:08:19;99475.09;;;5.63;79.15
19672;BME280;9983;51.114;13.788;2023-04-28T03:13:20;99481.50;;;5.89;78.19
19672;BME280;9983;51.114;13.788;2023-04-28T03:18:20;99465.28;;;5.73;79.43
19672;BME280;9983;51.114;13.788;2023-04-28T03:23:21;99457.41;;;5.81;79.28
19672;BME280;9983;51.114;13.788;2023-04-28T03:28:21;99448.00;;;5.87;79.40
19672;BME280;9983;51.114;13.788;2023-04-28T03:33:22;99450.72;;;5.77;79.03
19672;BME280;9983;51.114;13.788;2023-04-28T03:38:22;99443.66;;;5.95;78.49
19672;BME280;9983;51.114;13.788;2023-04-28T03:43:22;99448.09;;;5.67;79.83
19672;BME280;9983;51.114;13.788;2023-04-28T03:48:22;99429.69;;;5.93;77.43
19672;BME280;9983;51.114;13.788;2023-04-28T03:53:23;99432.94;;;6.15;76.98
19672;BME280;9983;51.114;13.788;2023-04-28T03:58:23;99435.28;;;6.27;77.63
19672;BME280;9983;51.114;13.788;2023-04-28T04:03:23;99443.13;;;6.46;76.44
19672;BME280;9983;51.114;13.788;2023-04-28T04:08:25;99428.22;;;6.08;78.05
19672;BME280;9983;51.114;13.788;2023-04-28T04:13:26;99428.97;;;6.46;77.39
19672;BME280;9983;51.114;13.788;2023-04-28T04:18:26;99421.47;;;6.59;77.07
19672;BME280;9983;51.114;13.788;2023-04-28T04:23:26;99413.56;;;6.67;76.48
19672;BME280;9983;51.114;13.788;2023-04-28T04:28:27;99400.78;;;6.89;76.85
19672;BME280;9983;51.114;13.788;2023-04-28T04:33:27;99386.28;;;7.09;73.07
19672;BME280;9983;51.114;13.788;2023-04-28T04:38:28;99392.78;;;7.32;73.21
19672;BME280;9983;51.114;13.788;2023-04-28T04:43:28;99388.69;;;7.72;71.01
19672;BME280;9983;51.114;13.788;2023-04-28T04:48:28;99389.13;;;7.85;66.95
19672;BME280;9983;51.114;13.788;2023-04-28T04:53:28;99374.28;;;8.32;64.14
19672;BME280;9983;51.114;13.788;2023-04-28T04:58:29;99378.72;;;8.66;63.06
19672;BME280;9983;51.114;13.788;2023-04-28T05:03:29;99375.38;;;8.80;63.05
19672;BME280;9983;51.114;13.788;2023-04-28T05:08:29;99366.88;;;9.01;60.40
19672;BME280;9983;51.114;13.788;2023-04-28T05:13:30;99365.31;;;9.39;59.01
19672;BME280;9983;51.114;13.788;2023-04-28T05:18:30;99363.28;;;9.57;58.53
19672;BME280;9983;51.114;13.788;2023-04-28T05:23:30;99350.03;;;9.64;59.49
19672;BME280;9983;51.114;13.788;2023-04-28T05:28:30;99346.81;;;9.84;57.47
19672;BME280;9983;51.114;13.788;2023-04-28T05:33:31;99349.06;;;10.04;56.77
19672;BME280;9983;51.114;13.788;2023-04-28T05:38:31;99331.06;;;10.29;56.04
19672;BME280;9983;51.114;13.788;2023-04-28T05:43:32;99334.47;;;10.45;55.80
19672;BME280;9983;51.114;13.788;2023-04-28T05:48:33;99329.91;;;10.54;55.12
19672;BME280;9983;51.114;13.788;2023-04-28T05:53:33;99331.25;;;10.73;54.51
19672;BME280;9983;51.114;13.788;2023-04-28T05:58:33;99329.75;;;10.93;54.92
19672;BME280;9983;51.114;13.788;2023-04-28T06:03:33;99332.16;;;10.88;55.14
19672;BME280;9983;51.114;13.788;2023-04-28T06:08:34;99332.03;;;11.04;55.98
19672;BME280;9983;51.114;13.788;2023-04-28T06:13:34;99330.34;;;11.03;54.76
19672;BME280;9983;51.114;13.788;2023-04-28T06:18:34;99333.00;;;11.40;54.01
19672;BME280;9983;51.114;13.788;2023-04-28T06:23:34;99334.78;;;11.92;51.86
19672;BME280;9983;51.114;13.788;2023-04-28T06:28:35;99325.16;;;12.34;50.30
19672;BME280;9983;51.114;13.788;2023-04-28T06:33:35;99328.81;;;12.26;50.25
19672;BME280;9983;51.114;13.788;2023-04-28T06:38:35;99328.78;;;12.62;50.29
19672;BME280;9983;51.114;13.788;2023-04-28T06:43:36;99323.00;;;12.65;48.52
19672;BME280;9983;51.114;13.788;2023-04-28T06:48:37;99312.41;;;12.78;48.00
19672;BME280;9983;51.114;13.788;2023-04-28T06:53:37;99315.69;;;12.80;48.71
19672;BME280;9983;51.114;13.788;2023-04-28T06:58:38;99312.63;;;12.83;48.08
19672;BME280;9983;51.114;13.788;2023-04-28T07:03:38;99311.72;;;13.19;48.48
19672;BME280;9983;51.114;13.788;2023-04-28T07:08:40;99305.09;;;13.49;48.16
19672;BME280;9983;51.114;13.788;2023-04-28T07:13:40;99295.13;;;13.43;46.85
19672;BME280;9983;51.114;13.788;2023-04-28T07:18:40;99304.63;;;13.74;46.44
19672;BME280;9983;51.114;13.788;2023-04-28T07:23:40;99294.00;;;13.65;46.65
19672;BME280;9983;51.114;13.788;2023-04-28T07:28:43;99287.94;;;13.98;46.21
19672;BME280;9983;51.114;13.788;2023-04-28T07:33:43;99295.41;;;13.96;45.91
19672;BME280;9983;51.114;13.788;2023-04-28T07:38:44;99283.84;;;14.15;44.72
19672;BME280;9983;51.114;13.788;2023-04-28T07:43:44;99278.09;;;14.25;45.08
19672;BME280;9983;51.114;13.788;2023-04-28T07:48:44;99271.56;;;14.54;44.68
19672;BME280;9983;51.114;13.788;2023-04-28T07:53:45;99267.00;;;15.00;44.98
19672;BME280;9983;51.114;13.788;2023-04-28T07:58:45;99258.69;;;15.22;43.74
19672;BME280;9983;51.114;13.788;2023-04-28T08:03:45;99256.59;;;15.57;43.71
19672;BME280;9983;51.114;13.788;2023-04-28T08:08:45;99263.56;;;15.77;42.72
19672;BME280;9983;51.114;13.788;2023-04-28T08:13:46;99256.41;;;16.03;41.87
19672;BME280;9983;51.114;13.788;2023-04-28T08:18:46;99247.66;;;16.01;40.92
19672;BME280;9983;51.114;13.788;2023-04-28T08:23:47;99252.28;;;15.93;41.78
19672;BME280;9983;51.114;13.788;2023-04-28T08:28:47;99252.66;;;16.04;41.01
19672;BME280;9983;51.114;13.788;2023-04-28T08:33:47;99249.00;;;16.61;40.95
19672;BME280;9983;51.114;13.788;2023-04-28T08:38:50;99249.34;;;16.71;40.71
19672;BME280;9983;51.114;13.788;2023-04-28T08:43:50;99242.06;;;16.40;40.17
19672;BME280;9983;51.114;13.788;2023-04-28T08:48:50;99236.25;;;16.93;39.76
19672;BME280;9983;51.114;13.788;2023-04-28T08:53:58;99231.84;;;16.74;39.91
19672;BME280;9983;51.114;13.788;2023-04-28T08:59:03;99231.31;;;16.90;41.05
19672;BME280;9983;51.114;13.788;2023-04-28T09:04:04;99217.63;;;17.03;40.69
19672;BME280;9983;51.114;13.788;2023-04-28T09:09:26;99211.81;;;17.42;39.31
19672;BME280;9983;51.114;13.788;2023-04-28T09:14:31;99220.88;;;17.73;39.63
19672;BME280;9983;51.114;13.788;2023-04-28T09:19:36;99213.81;;;17.72;38.15
19672;BME280;9983;51.114;13.788;2023-04-28T09:24:37;99209.66;;;17.99;37.66
19672;BME280;9983;51.114;13.788;2023-04-28T09:29:51;99205.00;;;18.06;38.27
19672;BME280;9983;51.114;13.788;2023-04-28T09:34:53;99201.16;;;18.26;39.16
19672;BME280;9983;51.114;13.788;2023-04-28T09:39:57;99210.25;;;18.19;38.01
19672;BME280;9983;51.114;13.788;2023-04-28T09:44:58;99205.22;;;18.35;37.58
19672;BME280;9983;51.114;13.788;2023-04-28T09:50:01;99203.34;;;18.05;38.40
19672;BME280;9983;51.114;13.788;2023-04-28T09:55:05;99205.50;;;17.67;38.18
19672;BME280;9983;51.114;13.788;2023-04-28T10:00:07;99205.97;;;17.64;38.02
19672;BME280;9983;51.114;13.788;2023-04-28T10:05:08;99207.16;;;17.68;38.14
19672;BME280;9983;51.114;13.788;2023-04-28T10:10:09;99198.72;;;17.76;37.84
19672;BME280;9983;51.114;13.788;2023-04-28T10:15:11;99195.63;;;18.20;37.01
19672;BME280;9983;51.114;13.788;2023-04-28T10:20:14;99195.34;;;18.52;36.71
19672;BME280;9983;51.114;13.788;2023-04-28T10:25:26;99197.00;;;18.53;37.95
19672;BME280;9983;51.114;13.788;2023-04-28T10:30:27;99196.69;;;18.61;37.80
19672;BME280;9983;51.114;13.788;2023-04-28T10:40:38;99199.09;;;18.09;38.47
19672;BME280;9983;51.114;13.788;2023-04-28T10:56:26;99215.84;;;17.15;47.96
19672;BME280;9983;51.114;13.788;2023-04-28T11:01:28;99223.44;;;16.19;54.67
19672;BME280;9983;51.114;13.788;2023-04-28T11:11:33;99243.31;;;15.15;68.26
19672;BME280;9983;51.114;13.788;2023-04-28T11:16:47;99230.47;;;14.85;75.23
19672;BME280;9983;51.114;13.788;2023-04-28T11:21:48;99237.69;;;15.24;76.80
19672;BME280;9983;51.114;13.788;2023-04-28T11:26:49;99242.22;;;15.43;80.26
19672;BME280;9983;51.114;13.788;2023-04-28T11:31:50;99241.59;;;15.41;87.77
19672;BME280;9983;51.114;13.788;2023-04-28T11:36:50;99240.84;;;15.14;94.49
19672;BME280;9983;51.114;13.788;2023-04-28T11:41:51;99241.75;;;16.17;88.19
19672;BME280;9983;51.114;13.788;2023-04-28T11:46:59;99240.47;;;16.26;86.24
19672;BME280;9983;51.114;13.788;2023-04-28T11:52:04;99241.09;;;15.83;85.38
19672;BME280;9983;51.114;13.788;2023-04-28T11:57:04;99235.91;;;16.20;84.20
19672;BME280;9983;51.114;13.788;2023-04-28T12:02:06;99235.44;;;16.29;87.01
19672;BME280;9983;51.114;13.788;2023-04-28T12:07:07;99211.81;;;16.75;85.50
19672;BME280;9983;51.114;13.788;2023-04-28T12:12:12;99208.56;;;16.91;85.88
19672;BME280;9983;51.114;13.788;2023-04-28T12:17:22;99215.09;;;17.26;82.37
19672;BME280;9983;51.114;13.788;2023-04-28T12:22:23;99207.00;;;17.81;76.15
19672;BME280;9983;51.114;13.788;2023-04-28T12:27:24;99208.38;;;17.72;75.38
19672;BME280;9983;51.114;13.788;2023-04-28T12:32:39;99201.66;;;17.74;71.53
19672;BME280;9983;51.114;13.788;2023-04-28T12:37:41;99196.22;;;17.74;68.07
19672;BME280;9983;51.114;13.788;2023-04-28T12:42:41;99197.66;;;17.95;66.62
19672;BME280;9983;51.114;13.788;2023-04-28T12:47:41;99192.22;;;17.95;63.72
19672;BME280;9983;51.114;13.788;2023-04-28T12:52:42;99197.16;;;17.68;60.98
19672;BME280;9983;51.114;13.788;2023-04-28T12:57:42;99190.91;;;17.31;58.89
19672;BME280;9983;51.114;13.788;2023-04-28T13:02:42;99187.69;;;17.16;59.97
19672;BME280;9983;51.114;13.788;2023-04-28T13:07:44;99191.53;;;16.90;62.00
19672;BME280;9983;51.114;13.788;2023-04-28T13:12:44;99162.66;;;16.78;60.55
19672;BME280;9983;51.114;13.788;2023-04-28T13:17:44;99180.69;;;17.08;62.76
19672;BME280;9983;51.114;13.788;2023-04-28T13:22:45;99166.56;;;16.63;61.79
19672;BME280;9983;51.114;13.788;2023-04-28T13:27:46;99165.59;;;16.20;65.55
19672;BME280;9983;51.114;13.788;2023-04-28T13:32:46;99168.50;;;16.75;62.93
19672;BME280;9983;51.114;13.788;2023-04-28T13:37:46;99155.50;;;16.33;67.70
19672;BME280;9983;51.114;13.788;2023-04-28T13:42:46;99155.25;;;16.66;64.75
19672;BME280;9983;51.114;13.788;2023-04-28T13:47:47;99139.28;;;16.65;65.18
19672;BME280;9983;51.114;13.788;2023-04-28T13:52:47;99125.41;;;16.98;65.55
19672;BME280;9983;51.114;13.788;2023-04-28T13:57:48;99128.19;;;16.66;66.37
19672;BME280;9983;51.114;13.788;2023-04-28T14:02:48;99118.25;;;16.60;65.99
19672;BME280;9983;51.114;13.788;2023-04-28T14:07:49;99120.03;;;16.48;66.20
19672;BME280;9983;51.114;13.788;2023-04-28T14:12:49;99110.81;;;16.00;66.64
19672;BME280;9983;51.114;13.788;2023-04-28T14:17:50;99101.75;;;15.87;66.28
19672;BME280;9983;51.114;13.788;2023-04-28T14:22:50;99101.50;;;15.96;67.54
19672;BME280;9983;51.114;13.788;2023-04-28T14:27:51;99087.53;;;15.99;66.10
19672;BME280;9983;51.114;13.788;2023-04-28T14:32:51;99082.66;;;15.82;67.07
19672;BME280;9983;51.114;13.788;2023-04-28T14:37:52;99081.59;;;15.83;66.24
19672;BME280;9983;51.114;13.788;2023-04-28T14:42:53;99083.00;;;15.92;66.11
19672;BME280;9983;51.114;13.788;2023-04-28T14:47:53;99081.50;;;15.65;67.35
19672;BME280;9983;51.114;13.788;2023-04-28T14:52:54;99063.56;;;15.77;66.43
19672;BME280;9983;51.114;13.788;2023-04-28T14:57:54;99064.84;;;16.00;67.21
19672;BME280;9983;51.114;13.788;2023-04-28T15:02:55;99062.41;;;15.60;67.39
19672;BME280;9983;51.114;13.788;2023-04-28T15:07:55;99055.06;;;15.99;67.32
19672;BME280;9983;51.114;13.788;2023-04-28T15:12:56;99052.47;;;15.85;65.81
19672;BME280;9983;51.114;13.788;2023-04-28T15:17:56;99061.00;;;15.89;65.13
19672;BME280;9983;51.114;13.788;2023-04-28T15:22:59;99047.69;;;15.87;65.07
19672;BME280;9983;51.114;13.788;2023-04-28T15:28:00;99046.91;;;15.80;65.07
19672;BME280;9983;51.114;13.788;2023-04-28T15:33:02;99041.41;;;15.93;63.47
19672;BME280;9983;51.114;13.788;2023-04-28T15:38:03;99028.28;;;15.72;63.90
19672;BME280;9983;51.114;13.788;2023-04-28T15:43:03;99022.19;;;16.02;63.37
19672;BME280;9983;51.114;13.788;2023-04-28T15:48:03;99021.91;;;15.85;63.25
19672;BME280;9983;51.114;13.788;2023-04-28T15:53:05;99032.94;;;16.15;62.87
19672;BME280;9983;51.114;13.788;2023-04-28T15:58:06;99015.97;;;15.76;63.86
19672;BME280;9983;51.114;13.788;2023-04-28T16:03:07;99020.69;;;15.56;64.88
19672;BME280;9983;51.114;13.788;2023-04-28T16:08:08;99020.66;;;15.87;64.27
19672;BME280;9983;51.114;13.788;2023-04-28T16:13:08;99011.16;;;15.78;65.59
19672;BME280;9983;51.114;13.788;2023-04-28T16:18:11;99012.44;;;15.38;66.12
19672;BME280;9983;51.114;13.788;2023-04-28T16:23:12;99012.19;;;15.46;65.35
19672;BME280;9983;51.114;13.788;2023-04-28T16:28:12;99010.69;;;15.50;64.30
19672;BME280;9983;51.114;13.788;2023-04-28T16:33:12;98994.06;;;15.22;65.09
19672;BME280;9983;51.114;13.788;2023-04-28T16:38:12;98996.03;;;15.39;65.64
19672;BME280;9983;51.114;13.788;2023-04-28T16:43:13;99000.03;;;14.86;67.30
19672;BME280;9983;51.114;13.788;2023-04-28T16:48:14;98989.94;;;15.12;66.72
19672;BME280;9983;51.114;13.788;2023-04-28T16:53:15;98979.56;;;15.09;67.66
19672;BME280;9983;51.114;13.788;2023-04-28T16:58:15;98983.31;;;15.08;68.15
19672;BME280;9983;51.114;13.788;2023-04-28T17:03:15;98969.38;;;15.11;68.79
19672;BME280;9983;51.114;13.788;2023-04-28T17:08:16;98967.84;;;15.29;68.29
19672;BME280;9983;51.114;13.788;2023-04-28T17:13:16;98972.56;;;15.02;69.34
19672;BME280;9983;51.114;13.788;2023-04-28T17:18:16;98975.00;;;15.10;68.25
19672;BME280;9983;51.114;13.788;2023-04-28T17:23:17;98966.75;;;14.98;69.96
19672;BME280;9983;51.114;13.788;2023-04-28T17:28:17;98958.81;;;15.10;68.24
19672;BME280;9983;51.114;13.788;2023-04-28T17:33:17;98963.56;;;15.14;67.81
19672;BME280;9983;51.114;13.788;2023-04-28T17:38:18;98964.50;;;14.95;67.93
19672;BME280;9983;51.114;13.788;2023-04-28T17:43:18;98962.72;;;14.76;68.25
19672;BME280;9983;51.114;13.788;2023-04-28T17:48:19;98960.31;;;14.55;69.56
19672;BME280;9983;51.114;13.788;2023-04-28T17:53:20;98944.84;;;14.75;68.26
19672;BME280;9983;51.114;13.788;2023-04-28T17:58:20;98955.09;;;14.60;69.96
19672;BME280;9983;51.114;13.788;2023-04-28T18:03:21;98961.75;;;14.64;69.54
19672;BME280;9983;51.114;13.788;2023-04-28T18:08:21;98964.22;;;14.59;69.59
19672;BME280;9983;51.114;13.788;2023-04-28T18:13:21;98961.00;;;14.88;68.70
19672;BME280;9983;51.114;13.788;2023-04-28T18:18:22;98963.59;;;14.57;70.21
19672;BME280;9983;51.114;13.788;2023-04-28T18:23:22;98966.53;;;14.49;70.09
19672;BME280;9983;51.114;13.788;2023-04-28T18:28:22;98961.13;;;14.49;70.39
19672;BME280;9983;51.114;13.788;2023-04-28T18:33:22;98961.13;;;14.49;70.52
19672;BME280;9983;51.114;13.788;2023-04-28T18:38:27;98960.22;;;14.81;69.11
19672;BME280;9983;51.114;13.788;2023-04-28T18:43:29;98973.00;;;14.48;70.16
19672;BME280;9983;51.114;13.788;2023-04-28T18:48:30;98962.72;;;14.76;70.04
19672;BME280;9983;51.114;13.788;2023-04-28T18:53:31;98963.66;;;14.43;71.25
19672;BME280;9983;51.114;13.788;2023-04-28T18:58:32;98972.31;;;14.59;70.87
19672;BME280;9983;51.114;13.788;2023-04-28T19:03:33;98981.84;;;14.68;70.86
19672;BME280;9983;51.114;13.788;2023-04-28T19:08:33;98985.59;;;14.60;71.03
19672;BME280;9983;51.114;13.788;2023-04-28T19:13:35;98971.84;;;14.75;70.76
19672;BME280;9983;51.114;13.788;2023-04-28T19:18:35;98972.69;;;14.69;71.34
19672;BME280;9983;51.114;13.788;2023-04-28T19:23:37;98985.94;;;14.77;71.23
19672;BME280;9983;51.114;13.788;2023-04-28T19:28:39;98977.72;;;14.59;72.36
19672;BME280;9983;51.114;13.788;2023-04-28T19:33:39;98983.06;;;14.72;72.02
19672;BME280;9983;51.114;13.788;2023-04-28T19:38:40;98971.47;;;14.65;73.16
19672;BME280;9983;51.114;13.788;2023-04-28T19:43:40;98959.47;;;14.54;74.43
19672;BME280;9983;51.114;13.788;2023-04-28T19:48:40;98959.03;;;14.57;74.62
19672;BME280;9983;51.114;13.788;2023-04-28T19:53:43;98951.53;;;14.66;74.27
19672;BME280;9983;51.114;13.788;2023-04-28T19:58:46;98957.78;;;14.60;75.49
19672;BME280;9983;51.114;13.788;2023-04-28T20:03:46;98947.41;;;14.57;75.33
19672;BME280;9983;51.114;13.788;2023-04-28T20:08:46;98947.03;;;14.53;75.93
19672;BME280;9983;51.114;13.788;2023-04-28T20:13:46;98949.91;;;14.58;76.04
19672;BME280;9983;51.114;13.788;2023-04-28T20:18:47;98939.22;;;14.38;77.60
19672;BME280;9983;51.114;13.788;2023-04-28T20:23:47;98945.41;;;14.32;78.09
19672;BME280;9983;51.114;13.788;2023-04-28T20:28:48;98931.72;;;14.40;78.47
19672;BME280;9983;51.114;13.788;2023-04-28T20:33:49;98928.84;;;14.22;79.62
19672;BME280;9983;51.114;13.788;2023-04-28T20:38:49;98918.72;;;14.11;80.79
19672;BME280;9983;51.114;13.788;2023-04-28T20:43:50;98905.81;;;14.26;80.50
19672;BME280;9983;51.114;13.788;2023-04-28T20:48:51;98906.44;;;14.28;80.23
19672;BME280;9983;51.114;13.788;2023-04-28T20:53:51;98897.78;;;14.13;81.24
19672;BME280;9983;51.114;13.788;2023-04-28T20:58:53;98910.63;;;13.98;82.79
19672;BME280;9983;51.114;13.788;2023-04-28T21:03:54;98906.03;;;14.18;81.11
19672;BME280;9983;51.114;13.788;2023-04-28T21:08:54;98908.09;;;14.16;82.06
19672;BME280;9983;51.114;13.788;2023-04-28T21:13:55;98914.41;;;13.97;83.17
19672;BME280;9983;51.114;13.788;2023-04-28T21:18:56;98912.28;;;14.12;82.68
19672;BME280;9983;51.114;13.788;2023-04-28T21:23:57;98915.22;;;13.91;83.93
19672;BME280;9983;51.114;13.788;2023-04-28T21:28:57;98905.84;;;14.13;83.06
19672;BME280;9983;51.114;13.788;2023-04-28T21:33:57;98909.81;;;14.04;83.40
19672;BME280;9983;51.114;13.788;2023-04-28T21:38:58;98901.69;;;14.17;82.44
19672;BME280;9983;51.114;13.788;2023-04-28T21:43:58;98896.06;;;14.25;82.25
19672;BME280;9983;51.114;13.788;2023-04-28T21:48:58;98895.63;;;14.41;81.34
19672;BME280;9983;51.114;13.788;2023-04-28T21:53:59;98903.50;;;14.36;81.50
19672;BME280;9983;51.114;13.788;2023-04-28T21:58:59;98905.56;;;14.34;82.31
19672;BME280;9983;51.114;13.788;2023-04-28T22:03:59;98900.19;;;14.48;81.14
19672;BME280;9983;51.114;13.788;2023-04-28T22:09:03;98892.72;;;14.36;81.98
19672;BME280;9983;51.114;13.788;2023-04-28T22:14:04;98887.94;;;14.45;81.69
19672;BME280;9983;51.114;13.788;2023-04-28T22:19:04;98882.69;;;14.57;81.20
19672;BME280;9983;51.114;13.788;2023-04-28T22:24:05;98865.28;;;14.53;81.45
19672;BME280;9983;51.114;13.788;2023-04-28T22:29:07;98858.22;;;14.52;81.31
19672;BME280;9983;51.114;13.788;2023-04-28T22:34:07;98861.56;;;14.54;82.34
19672;BME280;9983;51.114;13.788;2023-04-28T22:39:09;98872.75;;;14.51;82.27
19672;BME280;9983;51.114;13.788;2023-04-28T22:44:09;98880.19;;;14.62;81.75
19672;BME280;9983;51.114;13.788;2023-04-28T22:49:09;98877.50;;;14.62;82.68
19672;BME280;9983;51.114;13.788;2023-04-28T22:54:09;98878.69;;;14.66;83.36
19672;BME280;9983;51.114;13.788;2023-04-28T22:59:10;98881.88;;;14.50;87.36
19672;BME280;9983;51.114;13.788;2023-04-28T23:04:10;98866.94;;;14.54;90.64
19672;BME280;9983;51.114;13.788;2023-04-28T23:09:10;98874.53;;;14.12;98.73
19672;BME280;9983;51.114;13.788;2023-04-28T23:14:11;98855.63;;;14.25;98.75
19672;BME280;9983;51.114;13.788;2023-04-28T23:19:11;98850.81;;;14.40;99.34
19672;BME280;9983;51.114;13.788;2023-04-28T23:24:11;98840.47;;;14.24;100.00
19672;BME280;9983;51.114;13.788;2023-04-28T23:29:12;98845.78;;;13.93;100.00
19672;BME280;9983;51.114;13.788;2023-04-28T23:34:12;98842.69;;;13.83;100.00
19672;BME280;9983;51.114;13.788;2023-04-28T23:39:12;98813.41;;;13.99;100.00
19672;BME280;9983;51.114;13.788;2023-04-28T23:44:12;98816.19;;;13.66;100.00
19672;BME280;9983;51.114;13.788;2023-04-28T23:49:13;98822.88;;;13.11;100.00
19672;BME280;9983;51.114;13.788;2023-04-28T23:54:15;98825.34;;;13.13;100.00
19672;BME280;9983;51.114;13.788;2023-04-28T23:59:15;98830.34;;;13.36;100.00
